This is the latest recevied weather packets stored in our database for station/object SV1TGC. If no packets are shown the sender has not sent any weather packets the latest 10 day(s).
| Time | Temp. | Humidity | Pressure | Rain* | Wind** | Luminosity | Snow |
|---|---|---|---|---|---|---|---|
| 1778172353 | 18.89° C | 53% | 1017.7 hPa | 0 mm | - | - | - |
| 1778172036 | 18.89° C | 54% | 1017.8 hPa | 0 mm | - | - | - |
| 1778170833 | 18.89° C | 57% | 1018.2 hPa | 0 mm | - | - | - |
| 1778169934 | 19.44° C | 58% | 1017.9 hPa | 0 mm | - | - | - |
| 1778167533 | 20° C | 59% | 1018.5 hPa | 0 mm | - | - | - |
| 1778166633 | 20° C | 61% | 1018.4 hPa | 0 mm | - | - | - |
| 1778166336 | 20° C | 61% | 1018.4 hPa | 0 mm | - | - | - |
| 1778165733 | 20° C | 60% | 1018.4 hPa | 0 mm | - | - | - |
| 1778165434 | 20° C | 59% | 1018.4 hPa | 0 mm | - | - | - |
| 1778164836 | 20.56° C | 60% | 1018.5 hPa | 0 mm | - | - | - |
| 1778163636 | 20.56° C | 58% | 1018.4 hPa | 0 mm | - | - | - |
| 1778163354 | 20.56° C | 58% | 1018.4 hPa | 0 mm | - | - | - |
| 1778162135 | 21.11° C | 55% | 1018 hPa | 0 mm | - | - | - |
| 1778159134 | 21.11° C | 59% | 1018.1 hPa | 0 mm | - | - | - |
| 1778158535 | 21.11° C | 61% | 1018.1 hPa | 0 mm | - | - | - |
| 1778157635 | 21.11° C | 67% | 1018.6 hPa | 0 mm | - | - | - |
| 1778157335 | 21.11° C | 69% | 1018.5 hPa | 0 mm | - | - | - |
| 1778156435 | 20.56° C | 68% | 1018.6 hPa | 0 mm | - | - | - |
| 1778155833 | 20.56° C | 69% | 1018.6 hPa | 0 mm | - | - | - |
| 1778152834 | 21.67° C | 60% | 1019.1 hPa | 0 mm | - | - | - |
| 1778152233 | 20.56° C | 67% | 1018.9 hPa | 0 mm | - | - | - |
| 1778148335 | 20.56° C | 69% | 1018.4 hPa | 0 mm | - | - | - |
| 1778148051 | 20.56° C | 67% | 1018.5 hPa | 0 mm | - | - | - |
| 1778146833 | 21.67° C | 62% | 1018.3 hPa | 0 mm | - | - | - |
| 1778142648 | 20.56° C | 67% | 1018.2 hPa | 0 mm | - | - | - |
* Rain latest hour (hover to see other rain measurements)
** Current wind speed in m/s (hover to see current wind gust speed)